sensor_id;sensor_type;location;lat;lon;timestamp;P1;durP1;ratioP1;P2;durP2;ratioP2
68800;SDS011;55784;50.734;7.086;2023-12-29T00:02:09;7.03;;;2.00;;
68800;SDS011;55784;50.734;7.086;2023-12-29T00:04:34;5.93;;;1.00;;
68800;SDS011;55784;50.734;7.086;2023-12-29T00:06:59;10.50;;;2.77;;
68800;SDS011;55784;50.734;7.086;2023-12-29T00:09:24;9.20;;;2.57;;
68800;SDS011;55784;50.734;7.086;2023-12-29T00:11:50;11.70;;;3.40;;
68800;SDS011;55784;50.734;7.086;2023-12-29T00:14:15;10.97;;;2.87;;
68800;SDS011;55784;50.734;7.086;2023-12-29T00:16:41;5.53;;;1.00;;
68800;SDS011;55784;50.734;7.086;2023-12-29T00:19:06;11.00;;;3.43;;
68800;SDS011;55784;50.734;7.086;2023-12-29T00:21:31;10.30;;;1.70;;
68800;SDS011;55784;50.734;7.086;2023-12-29T00:23:57;4.20;;;0.90;;
68800;SDS011;55784;50.734;7.086;2023-12-29T00:26:22;5.50;;;1.13;;
68800;SDS011;55784;50.734;7.086;2023-12-29T00:28:47;9.53;;;2.87;;
68800;SDS011;55784;50.734;7.086;2023-12-29T00:31:15;7.97;;;1.90;;
68800;SDS011;55784;50.734;7.086;2023-12-29T00:33:41;7.60;;;2.08;;
68800;SDS011;55784;50.734;7.086;2023-12-29T00:36:06;7.20;;;2.17;;
68800;SDS011;55784;50.734;7.086;2023-12-29T00:38:34;6.23;;;1.20;;
68800;SDS011;55784;50.734;7.086;2023-12-29T00:41:00;4.70;;;0.80;;
68800;SDS011;55784;50.734;7.086;2023-12-29T00:43:25;13.40;;;1.63;;
68800;SDS011;55784;50.734;7.086;2023-12-29T00:45:50;8.90;;;2.33;;
68800;SDS011;55784;50.734;7.086;2023-12-29T00:48:15;7.57;;;1.27;;
68800;SDS011;55784;50.734;7.086;2023-12-29T00:50:40;12.30;;;3.30;;
68800;SDS011;55784;50.734;7.086;2023-12-29T00:53:06;5.73;;;1.40;;
68800;SDS011;55784;50.734;7.086;2023-12-29T00:55:31;9.57;;;2.30;;
68800;SDS011;55784;50.734;7.086;2023-12-29T00:57:56;8.40;;;1.70;;
68800;SDS011;55784;50.734;7.086;2023-12-29T01:00:21;6.40;;;1.37;;
68800;SDS011;55784;50.734;7.086;2023-12-29T01:02:46;7.67;;;1.43;;
68800;SDS011;55784;50.734;7.086;2023-12-29T01:05:15;5.43;;;1.40;;
68800;SDS011;55784;50.734;7.086;2023-12-29T01:07:41;7.57;;;1.98;;
68800;SDS011;55784;50.734;7.086;2023-12-29T01:10:07;7.20;;;1.20;;
68800;SDS011;55784;50.734;7.086;2023-12-29T01:12:32;6.00;;;1.20;;
68800;SDS011;55784;50.734;7.086;2023-12-29T01:14:57;11.50;;;3.33;;
68800;SDS011;55784;50.734;7.086;2023-12-29T01:17:22;9.20;;;2.50;;
68800;SDS011;55784;50.734;7.086;2023-12-29T01:19:48;9.63;;;2.00;;
68800;SDS011;55784;50.734;7.086;2023-12-29T01:22:13;8.07;;;1.83;;
68800;SDS011;55784;50.734;7.086;2023-12-29T01:24:38;5.33;;;1.40;;
68800;SDS011;55784;50.734;7.086;2023-12-29T01:27:03;8.30;;;1.67;;
68800;SDS011;55784;50.734;7.086;2023-12-29T01:29:30;8.15;;;1.95;;
68800;SDS011;55784;50.734;7.086;2023-12-29T01:31:55;7.07;;;1.60;;
68800;SDS011;55784;50.734;7.086;2023-12-29T01:34:20;7.60;;;1.40;;
68800;SDS011;55784;50.734;7.086;2023-12-29T01:36:45;7.63;;;1.40;;
68800;SDS011;55784;50.734;7.086;2023-12-29T01:39:11;7.53;;;1.70;;
68800;SDS011;55784;50.734;7.086;2023-12-29T01:41:36;8.37;;;1.73;;
68800;SDS011;55784;50.734;7.086;2023-12-29T01:46:30;8.07;;;2.00;;
68800;SDS011;55784;50.734;7.086;2023-12-29T01:48:56;5.80;;;1.17;;
68800;SDS011;55784;50.734;7.086;2023-12-29T01:51:23;5.82;;;1.20;;
68800;SDS011;55784;50.734;7.086;2023-12-29T01:53:49;13.73;;;4.22;;
68800;SDS011;55784;50.734;7.086;2023-12-29T01:56:15;5.40;;;1.10;;
68800;SDS011;55784;50.734;7.086;2023-12-29T01:58:41;7.10;;;1.80;;
68800;SDS011;55784;50.734;7.086;2023-12-29T02:01:06;4.28;;;1.00;;
68800;SDS011;55784;50.734;7.086;2023-12-29T02:03:32;7.90;;;1.70;;
68800;SDS011;55784;50.734;7.086;2023-12-29T02:05:57;5.93;;;1.50;;
68800;SDS011;55784;50.734;7.086;2023-12-29T02:08:23;5.13;;;1.10;;
68800;SDS011;55784;50.734;7.086;2023-12-29T02:10:48;10.80;;;2.50;;
68800;SDS011;55784;50.734;7.086;2023-12-29T02:13:14;10.80;;;1.93;;
68800;SDS011;55784;50.734;7.086;2023-12-29T02:15:39;6.37;;;1.60;;
68800;SDS011;55784;50.734;7.086;2023-12-29T02:18:05;6.30;;;1.23;;
68800;SDS011;55784;50.734;7.086;2023-12-29T02:20:31;8.47;;;2.23;;
68800;SDS011;55784;50.734;7.086;2023-12-29T02:22:56;5.57;;;1.13;;
68800;SDS011;55784;50.734;7.086;2023-12-29T02:25:22;7.03;;;1.50;;
68800;SDS011;55784;50.734;7.086;2023-12-29T02:27:52;4.13;;;1.02;;
68800;SDS011;55784;50.734;7.086;2023-12-29T02:30:25;6.03;;;1.33;;
68800;SDS011;55784;50.734;7.086;2023-12-29T02:32:59;4.70;;;1.00;;
68800;SDS011;55784;50.734;7.086;2023-12-29T02:35:27;5.72;;;0.90;;
68800;SDS011;55784;50.734;7.086;2023-12-29T02:37:53;8.15;;;1.50;;
68800;SDS011;55784;50.734;7.086;2023-12-29T02:40:18;6.73;;;1.40;;
68800;SDS011;55784;50.734;7.086;2023-12-29T02:42:44;6.50;;;1.50;;
68800;SDS011;55784;50.734;7.086;2023-12-29T02:45:09;8.20;;;1.50;;
68800;SDS011;55784;50.734;7.086;2023-12-29T02:47:35;6.45;;;1.30;;
68800;SDS011;55784;50.734;7.086;2023-12-29T02:50:00;9.67;;;1.60;;
68800;SDS011;55784;50.734;7.086;2023-12-29T02:52:26;6.43;;;1.03;;
68800;SDS011;55784;50.734;7.086;2023-12-29T02:54:51;7.80;;;1.77;;
68800;SDS011;55784;50.734;7.086;2023-12-29T02:57:16;6.00;;;1.03;;
68800;SDS011;55784;50.734;7.086;2023-12-29T02:59:41;5.47;;;1.10;;
68800;SDS011;55784;50.734;7.086;2023-12-29T03:02:07;6.93;;;1.30;;
68800;SDS011;55784;50.734;7.086;2023-12-29T03:04:32;7.20;;;1.83;;
68800;SDS011;55784;50.734;7.086;2023-12-29T03:06:57;4.80;;;1.00;;
68800;SDS011;55784;50.734;7.086;2023-12-29T03:09:22;7.77;;;1.23;;
68800;SDS011;55784;50.734;7.086;2023-12-29T03:11:47;7.87;;;1.50;;
68800;SDS011;55784;50.734;7.086;2023-12-29T03:14:14;7.97;;;1.63;;
68800;SDS011;55784;50.734;7.086;2023-12-29T03:16:39;7.30;;;1.15;;
68800;SDS011;55784;50.734;7.086;2023-12-29T03:19:05;3.60;;;0.80;;
68800;SDS011;55784;50.734;7.086;2023-12-29T03:21:30;7.63;;;2.00;;
68800;SDS011;55784;50.734;7.086;2023-12-29T03:23:55;7.97;;;1.90;;
68800;SDS011;55784;50.734;7.086;2023-12-29T03:26:20;6.50;;;1.00;;
68800;SDS011;55784;50.734;7.086;2023-12-29T03:28:45;7.57;;;1.50;;
68800;SDS011;55784;50.734;7.086;2023-12-29T03:31:11;7.33;;;1.20;;
68800;SDS011;55784;50.734;7.086;2023-12-29T03:33:36;6.00;;;0.90;;
68800;SDS011;55784;50.734;7.086;2023-12-29T03:36:01;4.83;;;0.70;;
68800;SDS011;55784;50.734;7.086;2023-12-29T03:38:27;6.60;;;1.53;;
68800;SDS011;55784;50.734;7.086;2023-12-29T03:40:52;6.27;;;1.40;;
68800;SDS011;55784;50.734;7.086;2023-12-29T03:43:17;6.00;;;1.23;;
68800;SDS011;55784;50.734;7.086;2023-12-29T03:45:42;7.00;;;1.73;;
68800;SDS011;55784;50.734;7.086;2023-12-29T03:48:08;7.90;;;1.40;;
68800;SDS011;55784;50.734;7.086;2023-12-29T03:50:33;6.13;;;1.13;;
68800;SDS011;55784;50.734;7.086;2023-12-29T03:52:59;8.23;;;1.30;;
68800;SDS011;55784;50.734;7.086;2023-12-29T03:55:24;7.97;;;1.50;;
68800;SDS011;55784;50.734;7.086;2023-12-29T03:57:52;7.55;;;1.10;;
68800;SDS011;55784;50.734;7.086;2023-12-29T04:00:17;4.78;;;0.93;;
68800;SDS011;55784;50.734;7.086;2023-12-29T04:02:43;6.03;;;0.90;;
68800;SDS011;55784;50.734;7.086;2023-12-29T04:05:08;7.97;;;1.03;;
68800;SDS011;55784;50.734;7.086;2023-12-29T04:07:34;7.27;;;1.60;;
68800;SDS011;55784;50.734;7.086;2023-12-29T04:09:59;8.43;;;1.30;;
68800;SDS011;55784;50.734;7.086;2023-12-29T04:12:24;6.70;;;1.20;;
68800;SDS011;55784;50.734;7.086;2023-12-29T04:14:49;6.35;;;1.08;;
68800;SDS011;55784;50.734;7.086;2023-12-29T04:17:15;7.97;;;1.20;;
68800;SDS011;55784;50.734;7.086;2023-12-29T04:19:40;4.18;;;1.00;;
68800;SDS011;55784;50.734;7.086;2023-12-29T04:22:08;6.50;;;0.90;;
68800;SDS011;55784;50.734;7.086;2023-12-29T04:24:33;7.80;;;1.10;;
68800;SDS011;55784;50.734;7.086;2023-12-29T04:26:59;6.22;;;0.93;;
68800;SDS011;55784;50.734;7.086;2023-12-29T04:29:24;6.93;;;0.70;;
68800;SDS011;55784;50.734;7.086;2023-12-29T04:31:49;5.60;;;1.13;;
68800;SDS011;55784;50.734;7.086;2023-12-29T04:34:15;4.97;;;0.77;;
68800;SDS011;55784;50.734;7.086;2023-12-29T04:36:40;5.20;;;1.00;;
68800;SDS011;55784;50.734;7.086;2023-12-29T04:39:05;5.57;;;0.87;;
68800;SDS011;55784;50.734;7.086;2023-12-29T04:41:34;5.45;;;1.27;;
68800;SDS011;55784;50.734;7.086;2023-12-29T04:43:59;7.33;;;0.97;;
68800;SDS011;55784;50.734;7.086;2023-12-29T04:46:24;5.33;;;1.10;;
68800;SDS011;55784;50.734;7.086;2023-12-29T04:48:49;4.33;;;0.80;;
68800;SDS011;55784;50.734;7.086;2023-12-29T04:51:14;5.40;;;1.00;;
68800;SDS011;55784;50.734;7.086;2023-12-29T04:53:40;6.43;;;1.20;;
68800;SDS011;55784;50.734;7.086;2023-12-29T04:56:05;5.13;;;0.80;;
68800;SDS011;55784;50.734;7.086;2023-12-29T04:58:30;7.40;;;1.30;;
68800;SDS011;55784;50.734;7.086;2023-12-29T05:00:55;5.93;;;0.90;;
68800;SDS011;55784;50.734;7.086;2023-12-29T05:03:21;5.50;;;0.80;;
68800;SDS011;55784;50.734;7.086;2023-12-29T05:05:46;6.13;;;1.20;;
68800;SDS011;55784;50.734;7.086;2023-12-29T05:08:11;4.97;;;0.70;;
68800;SDS011;55784;50.734;7.086;2023-12-29T05:10:36;5.87;;;0.90;;
68800;SDS011;55784;50.734;7.086;2023-12-29T05:13:03;4.90;;;1.20;;
68800;SDS011;55784;50.734;7.086;2023-12-29T05:15:28;6.57;;;1.10;;
68800;SDS011;55784;50.734;7.086;2023-12-29T05:17:53;5.03;;;1.03;;
68800;SDS011;55784;50.734;7.086;2023-12-29T05:20:19;6.30;;;1.17;;
68800;SDS011;55784;50.734;7.086;2023-12-29T05:22:44;6.07;;;1.10;;
68800;SDS011;55784;50.734;7.086;2023-12-29T05:25:09;4.33;;;0.80;;
68800;SDS011;55784;50.734;7.086;2023-12-29T05:27:35;6.23;;;0.80;;
68800;SDS011;55784;50.734;7.086;2023-12-29T05:30:00;7.10;;;1.20;;
68800;SDS011;55784;50.734;7.086;2023-12-29T05:32:26;3.70;;;0.80;;
68800;SDS011;55784;50.734;7.086;2023-12-29T05:34:51;4.28;;;0.80;;
68800;SDS011;55784;50.734;7.086;2023-12-29T05:37:16;6.73;;;1.00;;
68800;SDS011;55784;50.734;7.086;2023-12-29T05:39:42;4.17;;;0.80;;
68800;SDS011;55784;50.734;7.086;2023-12-29T05:42:07;3.10;;;0.60;;
68800;SDS011;55784;50.734;7.086;2023-12-29T05:44:35;5.00;;;0.97;;
68800;SDS011;55784;50.734;7.086;2023-12-29T05:47:00;5.20;;;0.50;;
68800;SDS011;55784;50.734;7.086;2023-12-29T05:49:26;4.80;;;0.70;;
68800;SDS011;55784;50.734;7.086;2023-12-29T05:51:51;4.90;;;0.90;;
68800;SDS011;55784;50.734;7.086;2023-12-29T05:54:16;5.63;;;1.00;;
68800;SDS011;55784;50.734;7.086;2023-12-29T05:56:43;4.82;;;0.70;;
68800;SDS011;55784;50.734;7.086;2023-12-29T05:59:08;5.73;;;0.80;;
68800;SDS011;55784;50.734;7.086;2023-12-29T06:01:33;4.90;;;0.60;;
68800;SDS011;55784;50.734;7.086;2023-12-29T06:03:58;5.10;;;0.97;;
68800;SDS011;55784;50.734;7.086;2023-12-29T06:06:24;4.07;;;0.70;;
68800;SDS011;55784;50.734;7.086;2023-12-29T06:08:49;4.88;;;0.70;;
68800;SDS011;55784;50.734;7.086;2023-12-29T06:11:14;4.25;;;0.63;;
68800;SDS011;55784;50.734;7.086;2023-12-29T06:13:42;6.70;;;1.20;;
68800;SDS011;55784;50.734;7.086;2023-12-29T06:16:08;4.17;;;0.60;;
68800;SDS011;55784;50.734;7.086;2023-12-29T06:18:33;3.97;;;0.60;;
68800;SDS011;55784;50.734;7.086;2023-12-29T06:20:58;3.70;;;0.60;;
68800;SDS011;55784;50.734;7.086;2023-12-29T06:23:24;3.70;;;0.60;;
68800;SDS011;55784;50.734;7.086;2023-12-29T06:25:50;5.22;;;1.00;;
68800;SDS011;55784;50.734;7.086;2023-12-29T06:28:15;2.90;;;0.50;;
68800;SDS011;55784;50.734;7.086;2023-12-29T06:30:41;5.57;;;0.80;;
68800;SDS011;55784;50.734;7.086;2023-12-29T06:33:06;3.63;;;0.60;;
68800;SDS011;55784;50.734;7.086;2023-12-29T06:35:32;5.15;;;0.70;;
68800;SDS011;55784;50.734;7.086;2023-12-29T06:37:57;3.92;;;0.63;;
68800;SDS011;55784;50.734;7.086;2023-12-29T06:40:23;4.70;;;0.80;;
68800;SDS011;55784;50.734;7.086;2023-12-29T06:42:49;3.83;;;0.57;;
68800;SDS011;55784;50.734;7.086;2023-12-29T06:45:14;4.37;;;0.77;;
68800;SDS011;55784;50.734;7.086;2023-12-29T06:47:40;4.47;;;0.70;;
68800;SDS011;55784;50.734;7.086;2023-12-29T06:50:05;3.47;;;0.70;;
68800;SDS011;55784;50.734;7.086;2023-12-29T06:52:32;4.55;;;0.68;;
68800;SDS011;55784;50.734;7.086;2023-12-29T06:55:00;5.97;;;0.70;;
68800;SDS011;55784;50.734;7.086;2023-12-29T06:57:25;5.28;;;0.63;;
68800;SDS011;55784;50.734;7.086;2023-12-29T06:59:50;2.27;;;0.50;;
68800;SDS011;55784;50.734;7.086;2023-12-29T07:02:16;5.30;;;0.70;;
68800;SDS011;55784;50.734;7.086;2023-12-29T07:04:42;5.67;;;0.80;;
68800;SDS011;55784;50.734;7.086;2023-12-29T07:07:08;3.75;;;0.63;;
68800;SDS011;55784;50.734;7.086;2023-12-29T07:09:33;3.57;;;0.50;;
68800;SDS011;55784;50.734;7.086;2023-12-29T07:11:58;5.10;;;0.90;;
68800;SDS011;55784;50.734;7.086;2023-12-29T07:14:23;4.77;;;0.50;;
68800;SDS011;55784;50.734;7.086;2023-12-29T07:16:48;2.63;;;0.40;;
68800;SDS011;55784;50.734;7.086;2023-12-29T07:19:13;4.13;;;0.70;;
68800;SDS011;55784;50.734;7.086;2023-12-29T07:21:39;6.70;;;1.00;;
68800;SDS011;55784;50.734;7.086;2023-12-29T07:24:04;4.23;;;0.53;;
68800;SDS011;55784;50.734;7.086;2023-12-29T07:26:29;5.60;;;0.57;;
68800;SDS011;55784;50.734;7.086;2023-12-29T07:28:57;3.88;;;0.60;;
68800;SDS011;55784;50.734;7.086;2023-12-29T07:31:22;3.80;;;0.70;;
68800;SDS011;55784;50.734;7.086;2023-12-29T07:33:47;2.50;;;0.50;;
68800;SDS011;55784;50.734;7.086;2023-12-29T07:36:12;4.43;;;0.60;;
68800;SDS011;55784;50.734;7.086;2023-12-29T07:38:38;5.47;;;0.70;;
68800;SDS011;55784;50.734;7.086;2023-12-29T07:41:04;5.73;;;0.50;;
68800;SDS011;55784;50.734;7.086;2023-12-29T07:43:30;3.70;;;0.65;;
68800;SDS011;55784;50.734;7.086;2023-12-29T07:45:55;3.10;;;0.60;;
68800;SDS011;55784;50.734;7.086;2023-12-29T07:48:20;5.23;;;1.00;;
68800;SDS011;55784;50.734;7.086;2023-12-29T07:50:46;2.60;;;0.50;;
68800;SDS011;55784;50.734;7.086;2023-12-29T07:53:11;3.53;;;0.53;;
68800;SDS011;55784;50.734;7.086;2023-12-29T07:55:39;10.03;;;2.77;;
68800;SDS011;55784;50.734;7.086;2023-12-29T07:58:05;3.25;;;0.50;;
68800;SDS011;55784;50.734;7.086;2023-12-29T08:00:30;5.20;;;0.73;;
68800;SDS011;55784;50.734;7.086;2023-12-29T08:02:56;3.67;;;0.60;;
68800;SDS011;55784;50.734;7.086;2023-12-29T08:05:21;2.87;;;0.77;;
68800;SDS011;55784;50.734;7.086;2023-12-29T08:07:49;5.35;;;1.00;;
68800;SDS011;55784;50.734;7.086;2023-12-29T08:10:14;5.00;;;0.60;;
68800;SDS011;55784;50.734;7.086;2023-12-29T08:12:39;2.93;;;0.43;;
68800;SDS011;55784;50.734;7.086;2023-12-29T08:15:04;4.90;;;0.50;;
68800;SDS011;55784;50.734;7.086;2023-12-29T08:17:30;3.67;;;0.60;;
68800;SDS011;55784;50.734;7.086;2023-12-29T08:19:56;4.27;;;0.73;;
68800;SDS011;55784;50.734;7.086;2023-12-29T08:22:21;3.53;;;0.40;;
68800;SDS011;55784;50.734;7.086;2023-12-29T08:24:47;5.40;;;0.87;;
68800;SDS011;55784;50.734;7.086;2023-12-29T08:27:12;2.67;;;0.50;;
68800;SDS011;55784;50.734;7.086;2023-12-29T08:29:38;3.85;;;0.50;;
68800;SDS011;55784;50.734;7.086;2023-12-29T08:32:03;3.67;;;0.40;;
68800;SDS011;55784;50.734;7.086;2023-12-29T08:34:28;3.17;;;0.40;;
68800;SDS011;55784;50.734;7.086;2023-12-29T08:36:53;3.10;;;0.60;;
68800;SDS011;55784;50.734;7.086;2023-12-29T08:39:19;3.37;;;0.47;;
68800;SDS011;55784;50.734;7.086;2023-12-29T08:41:44;3.27;;;0.40;;
68800;SDS011;55784;50.734;7.086;2023-12-29T08:44:09;6.70;;;0.50;;
68800;SDS011;55784;50.734;7.086;2023-12-29T08:46:35;3.55;;;0.70;;
68800;SDS011;55784;50.734;7.086;2023-12-29T08:49:00;4.45;;;0.80;;
68800;SDS011;55784;50.734;7.086;2023-12-29T08:51:26;6.27;;;1.10;;
68800;SDS011;55784;50.734;7.086;2023-12-29T08:53:51;2.67;;;0.47;;
68800;SDS011;55784;50.734;7.086;2023-12-29T08:56:16;4.13;;;0.80;;
68800;SDS011;55784;50.734;7.086;2023-12-29T08:58:41;3.90;;;0.57;;
68800;SDS011;55784;50.734;7.086;2023-12-29T09:01:07;5.03;;;0.50;;
68800;SDS011;55784;50.734;7.086;2023-12-29T09:03:32;6.37;;;0.77;;
68800;SDS011;55784;50.734;7.086;2023-12-29T09:05:57;2.97;;;0.40;;
68800;SDS011;55784;50.734;7.086;2023-12-29T09:08:24;4.43;;;0.90;;
68800;SDS011;55784;50.734;7.086;2023-12-29T09:10:49;2.78;;;0.40;;
68800;SDS011;55784;50.734;7.086;2023-12-29T09:13:14;3.33;;;0.40;;
68800;SDS011;55784;50.734;7.086;2023-12-29T09:15:39;4.07;;;0.90;;
68800;SDS011;55784;50.734;7.086;2023-12-29T09:18:06;5.13;;;1.00;;
68800;SDS011;55784;50.734;7.086;2023-12-29T09:20:31;3.47;;;0.60;;
68800;SDS011;55784;50.734;7.086;2023-12-29T09:22:56;4.30;;;0.50;;
68800;SDS011;55784;50.734;7.086;2023-12-29T09:25:23;4.13;;;0.60;;
68800;SDS011;55784;50.734;7.086;2023-12-29T09:27:48;3.15;;;0.70;;
68800;SDS011;55784;50.734;7.086;2023-12-29T09:30:14;3.23;;;0.50;;
68800;SDS011;55784;50.734;7.086;2023-12-29T09:32:39;3.22;;;0.50;;
68800;SDS011;55784;50.734;7.086;2023-12-29T09:35:05;3.70;;;0.70;;
68800;SDS011;55784;50.734;7.086;2023-12-29T09:37:30;3.25;;;0.50;;
68800;SDS011;55784;50.734;7.086;2023-12-29T09:39:55;2.13;;;0.30;;
68800;SDS011;55784;50.734;7.086;2023-12-29T09:42:21;3.70;;;0.60;;
68800;SDS011;55784;50.734;7.086;2023-12-29T09:44:51;3.00;;;0.50;;
68800;SDS011;55784;50.734;7.086;2023-12-29T09:47:20;2.92;;;0.50;;
68800;SDS011;55784;50.734;7.086;2023-12-29T09:49:48;2.63;;;0.40;;
68800;SDS011;55784;50.734;7.086;2023-12-29T09:52:13;2.50;;;0.40;;
68800;SDS011;55784;50.734;7.086;2023-12-29T09:54:40;5.85;;;0.70;;
68800;SDS011;55784;50.734;7.086;2023-12-29T09:57:06;3.92;;;0.60;;
68800;SDS011;55784;50.734;7.086;2023-12-29T09:59:34;4.57;;;0.70;;
68800;SDS011;55784;50.734;7.086;2023-12-29T10:02:01;1.83;;;0.40;;
68800;SDS011;55784;50.734;7.086;2023-12-29T10:04:28;3.63;;;0.40;;
68800;SDS011;55784;50.734;7.086;2023-12-29T10:06:53;5.30;;;1.57;;
68800;SDS011;55784;50.734;7.086;2023-12-29T10:09:19;4.35;;;0.88;;
68800;SDS011;55784;50.734;7.086;2023-12-29T10:11:45;3.37;;;0.60;;
68800;SDS011;55784;50.734;7.086;2023-12-29T10:14:20;4.00;;;0.70;;
68800;SDS011;55784;50.734;7.086;2023-12-29T10:16:50;5.88;;;0.80;;
68800;SDS011;55784;50.734;7.086;2023-12-29T10:19:30;3.55;;;0.32;;
68800;SDS011;55784;50.734;7.086;2023-12-29T10:24:42;4.28;;;0.95;;
68800;SDS011;55784;50.734;7.086;2023-12-29T10:27:10;1.80;;;0.30;;
68800;SDS011;55784;50.734;7.086;2023-12-29T10:29:36;3.93;;;1.00;;
68800;SDS011;55784;50.734;7.086;2023-12-29T10:32:02;3.92;;;0.50;;
68800;SDS011;55784;50.734;7.086;2023-12-29T10:34:28;4.27;;;0.77;;
68800;SDS011;55784;50.734;7.086;2023-12-29T10:36:54;4.20;;;0.70;;
68800;SDS011;55784;50.734;7.086;2023-12-29T10:39:19;2.92;;;0.35;;
68800;SDS011;55784;50.734;7.086;2023-12-29T10:41:44;3.87;;;0.70;;
68800;SDS011;55784;50.734;7.086;2023-12-29T10:44:10;3.57;;;0.50;;
68800;SDS011;55784;50.734;7.086;2023-12-29T10:46:35;4.27;;;1.00;;
68800;SDS011;55784;50.734;7.086;2023-12-29T10:49:10;5.53;;;1.00;;
68800;SDS011;55784;50.734;7.086;2023-12-29T10:51:35;2.90;;;0.60;;
68800;SDS011;55784;50.734;7.086;2023-12-29T10:54:02;2.53;;;0.50;;
68800;SDS011;55784;50.734;7.086;2023-12-29T10:56:27;4.83;;;1.07;;
68800;SDS011;55784;50.734;7.086;2023-12-29T10:58:57;4.03;;;0.50;;
68800;SDS011;55784;50.734;7.086;2023-12-29T11:01:22;2.53;;;0.43;;
68800;SDS011;55784;50.734;7.086;2023-12-29T11:03:57;1.73;;;0.30;;
68800;SDS011;55784;50.734;7.086;2023-12-29T11:06:22;1.50;;;0.28;;
68800;SDS011;55784;50.734;7.086;2023-12-29T11:08:48;1.63;;;0.30;;
68800;SDS011;55784;50.734;7.086;2023-12-29T11:11:13;2.63;;;0.30;;
68800;SDS011;55784;50.734;7.086;2023-12-29T11:13:39;2.22;;;0.40;;
68800;SDS011;55784;50.734;7.086;2023-12-29T11:16:05;2.03;;;0.30;;
68800;SDS011;55784;50.734;7.086;2023-12-29T11:18:30;6.33;;;1.43;;
68800;SDS011;55784;50.734;7.086;2023-12-29T11:20:56;6.43;;;1.30;;
68800;SDS011;55784;50.734;7.086;2023-12-29T11:23:21;5.37;;;1.10;;
68800;SDS011;55784;50.734;7.086;2023-12-29T11:25:46;4.50;;;0.90;;
68800;SDS011;55784;50.734;7.086;2023-12-29T11:28:12;3.23;;;0.50;;
68800;SDS011;55784;50.734;7.086;2023-12-29T11:30:37;1.35;;;0.28;;
68800;SDS011;55784;50.734;7.086;2023-12-29T11:43:13;0.80;;;0.27;;
68800;SDS011;55784;50.734;7.086;2023-12-29T11:45:39;1.65;;;0.28;;
68800;SDS011;55784;50.734;7.086;2023-12-29T11:48:04;1.80;;;0.30;;
68800;SDS011;55784;50.734;7.086;2023-12-29T11:50:33;1.90;;;0.30;;
68800;SDS011;55784;50.734;7.086;2023-12-29T11:53:05;3.47;;;0.47;;
68800;SDS011;55784;50.734;7.086;2023-12-29T11:55:34;2.70;;;0.40;;
68800;SDS011;55784;50.734;7.086;2023-12-29T11:58:00;3.10;;;0.50;;
68800;SDS011;55784;50.734;7.086;2023-12-29T12:00:40;1.80;;;0.33;;
68800;SDS011;55784;50.734;7.086;2023-12-29T12:03:47;2.13;;;0.30;;
68800;SDS011;55784;50.734;7.086;2023-12-29T12:05:54;4.83;;;1.00;;
68800;SDS011;55784;50.734;7.086;2023-12-29T12:08:26;2.90;;;0.50;;
68800;SDS011;55784;50.734;7.086;2023-12-29T12:10:52;4.70;;;0.70;;
68800;SDS011;55784;50.734;7.086;2023-12-29T12:13:41;2.17;;;0.40;;
68800;SDS011;55784;50.734;7.086;2023-12-29T12:16:02;2.72;;;0.47;;
68800;SDS011;55784;50.734;7.086;2023-12-29T12:18:28;1.53;;;0.20;;
68800;SDS011;55784;50.734;7.086;2023-12-29T12:20:53;2.17;;;0.30;;
68800;SDS011;55784;50.734;7.086;2023-12-29T12:23:19;1.90;;;0.30;;
68800;SDS011;55784;50.734;7.086;2023-12-29T12:25:45;3.05;;;0.32;;
68800;SDS011;55784;50.734;7.086;2023-12-29T12:28:10;1.95;;;0.40;;
68800;SDS011;55784;50.734;7.086;2023-12-29T12:30:38;1.93;;;0.30;;
68800;SDS011;55784;50.734;7.086;2023-12-29T12:33:03;1.03;;;0.20;;
68800;SDS011;55784;50.734;7.086;2023-12-29T12:35:29;2.35;;;0.40;;
68800;SDS011;55784;50.734;7.086;2023-12-29T12:40:32;1.40;;;0.20;;
68800;SDS011;55784;50.734;7.086;2023-12-29T12:42:57;2.53;;;0.20;;
68800;SDS011;55784;50.734;7.086;2023-12-29T12:45:22;1.10;;;0.20;;
68800;SDS011;55784;50.734;7.086;2023-12-29T12:47:55;1.13;;;0.20;;
68800;SDS011;55784;50.734;7.086;2023-12-29T12:50:24;2.63;;;0.50;;
68800;SDS011;55784;50.734;7.086;2023-12-29T12:52:49;1.53;;;0.20;;
68800;SDS011;55784;50.734;7.086;2023-12-29T12:55:15;2.27;;;0.20;;
68800;SDS011;55784;50.734;7.086;2023-12-29T12:57:41;1.98;;;0.20;;
68800;SDS011;55784;50.734;7.086;2023-12-29T13:00:06;2.43;;;0.20;;
68800;SDS011;55784;50.734;7.086;2023-12-29T13:02:35;1.52;;;0.30;;
68800;SDS011;55784;50.734;7.086;2023-12-29T13:05:00;0.77;;;0.20;;
68800;SDS011;55784;50.734;7.086;2023-12-29T13:07:30;2.15;;;0.40;;
68800;SDS011;55784;50.734;7.086;2023-12-29T13:09:55;0.77;;;0.20;;
68800;SDS011;55784;50.734;7.086;2023-12-29T13:12:20;1.37;;;0.30;;
68800;SDS011;55784;50.734;7.086;2023-12-29T13:14:46;1.27;;;0.20;;
68800;SDS011;55784;50.734;7.086;2023-12-29T13:17:12;1.07;;;0.20;;
68800;SDS011;55784;50.734;7.086;2023-12-29T13:19:37;3.03;;;0.40;;
68800;SDS011;55784;50.734;7.086;2023-12-29T13:22:06;3.78;;;0.73;;
68800;SDS011;55784;50.734;7.086;2023-12-29T13:24:32;1.30;;;0.20;;
68800;SDS011;55784;50.734;7.086;2023-12-29T13:27:01;0.73;;;0.10;;
68800;SDS011;55784;50.734;7.086;2023-12-29T13:29:27;1.48;;;0.20;;
68800;SDS011;55784;50.734;7.086;2023-12-29T13:31:56;0.45;;;0.10;;
68800;SDS011;55784;50.734;7.086;2023-12-29T13:34:27;1.20;;;0.20;;
68800;SDS011;55784;50.734;7.086;2023-12-29T13:37:01;3.25;;;0.43;;
68800;SDS011;55784;50.734;7.086;2023-12-29T13:39:33;5.82;;;1.10;;
68800;SDS011;55784;50.734;7.086;2023-12-29T13:42:01;3.13;;;0.57;;
68800;SDS011;55784;50.734;7.086;2023-12-29T13:44:27;2.88;;;0.50;;
68800;SDS011;55784;50.734;7.086;2023-12-29T13:46:53;5.05;;;0.50;;
68800;SDS011;55784;50.734;7.086;2023-12-29T13:49:19;2.78;;;0.43;;
68800;SDS011;55784;50.734;7.086;2023-12-29T13:51:45;2.80;;;0.40;;
68800;SDS011;55784;50.734;7.086;2023-12-29T13:54:10;2.40;;;0.40;;
68800;SDS011;55784;50.734;7.086;2023-12-29T13:56:35;3.00;;;0.30;;
68800;SDS011;55784;50.734;7.086;2023-12-29T13:59:01;2.65;;;0.50;;
68800;SDS011;55784;50.734;7.086;2023-12-29T14:01:36;3.08;;;0.50;;
68800;SDS011;55784;50.734;7.086;2023-12-29T14:04:02;2.22;;;0.40;;
68800;SDS011;55784;50.734;7.086;2023-12-29T14:07:10;2.55;;;0.40;;
68800;SDS011;55784;50.734;7.086;2023-12-29T14:09:17;1.85;;;0.40;;
68800;SDS011;55784;50.734;7.086;2023-12-29T14:11:48;3.03;;;0.50;;
68800;SDS011;55784;50.734;7.086;2023-12-29T14:14:14;1.20;;;0.30;;
68800;SDS011;55784;50.734;7.086;2023-12-29T14:16:42;4.53;;;0.97;;
68800;SDS011;55784;50.734;7.086;2023-12-29T14:19:08;3.17;;;0.40;;
68800;SDS011;55784;50.734;7.086;2023-12-29T14:21:33;3.27;;;0.60;;
68800;SDS011;55784;50.734;7.086;2023-12-29T14:26:30;2.67;;;0.40;;
68800;SDS011;55784;50.734;7.086;2023-12-29T14:29:02;1.30;;;0.30;;
68800;SDS011;55784;50.734;7.086;2023-12-29T14:31:27;3.03;;;0.30;;
68800;SDS011;55784;50.734;7.086;2023-12-29T14:33:53;3.67;;;0.40;;
68800;SDS011;55784;50.734;7.086;2023-12-29T14:36:18;2.20;;;0.22;;
68800;SDS011;55784;50.734;7.086;2023-12-29T14:38:43;2.33;;;0.40;;
68800;SDS011;55784;50.734;7.086;2023-12-29T14:41:09;4.47;;;1.00;;
68800;SDS011;55784;50.734;7.086;2023-12-29T14:43:34;2.72;;;0.40;;
68800;SDS011;55784;50.734;7.086;2023-12-29T14:45:59;1.52;;;0.38;;
68800;SDS011;55784;50.734;7.086;2023-12-29T14:48:24;1.75;;;0.38;;
68800;SDS011;55784;50.734;7.086;2023-12-29T14:50:50;2.53;;;0.30;;
68800;SDS011;55784;50.734;7.086;2023-12-29T14:53:15;1.20;;;0.20;;
68800;SDS011;55784;50.734;7.086;2023-12-29T14:55:40;4.13;;;0.50;;
68800;SDS011;55784;50.734;7.086;2023-12-29T14:58:05;1.17;;;0.20;;
68800;SDS011;55784;50.734;7.086;2023-12-29T15:00:31;4.17;;;0.70;;
68800;SDS011;55784;50.734;7.086;2023-12-29T15:02:56;4.47;;;0.50;;